Time;durP1;ratioP1;P1;durP2;ratioP2;P2;SDS_P1;SDS_P2;PMS_P1;PMS_P2;Temp;Humidity;BMP_temperature;BMP_pressure;BME280_temperature;BME280_humidity;BME280_pressure;Samples;Min_cycle;Max_cycle;Signal;HPM_P1;HPM_P2
2023/08/30 00:01:12;;;;;;;4.20;1.17;;;;;;;16.92;100.00;101277.50;5009017;28;20386;-57
2023/08/30 00:03:43;;;;;;;4.20;1.10;;;;;;;16.91;100.00;101273.13;5026994;28;20669;-55
2023/08/30 00:06:15;;;;;;;5.37;0.90;;;;;;;16.86;100.00;101281.19;5016826;28;20272;-57
2023/08/30 00:08:46;;;;;;;4.80;1.00;;;;;;;16.89;100.00;101280.22;5026668;28;20299;-56
2023/08/30 00:11:16;;;;;;;2.27;1.10;;;;;;;16.89;100.00;101285.50;5017390;28;20290;-56
2023/08/30 00:13:47;;;;;;;1.73;1.17;;;;;;;16.88;100.00;101274.09;5027410;28;20284;-55
2023/08/30 00:16:18;;;;;;;2.60;1.20;;;;;;;16.92;100.00;101269.59;5017057;28;20290;-58
2023/08/30 00:18:48;;;;;;;5.57;1.43;;;;;;;16.97;100.00;101283.53;5026892;28;20311;-57
2023/08/30 00:21:21;;;;;;;4.10;1.43;;;;;;;16.90;100.00;101266.09;5016665;28;20271;-55
2023/08/30 00:23:51;;;;;;;2.63;1.40;;;;;;;17.04;100.00;101285.09;5026436;28;20299;-55
2023/08/30 00:26:22;;;;;;;3.70;1.40;;;;;;;17.13;100.00;101284.84;4994325;28;20449;-57
2023/08/30 00:28:52;;;;;;;3.53;1.30;;;;;;;17.13;100.00;101271.66;5007528;28;20280;-57
2023/08/30 00:31:22;;;;;;;4.47;1.60;;;;;;;17.11;100.00;101268.19;4996853;28;20704;-55
2023/08/30 00:33:53;;;;;;;2.40;1.33;;;;;;;17.04;100.00;101263.97;5007432;28;20761;-57
2023/08/30 00:36:25;;;;;;;4.23;1.40;;;;;;;17.05;100.00;101260.44;4996892;28;20300;-57
2023/08/30 00:38:56;;;;;;;2.87;1.40;;;;;;;17.09;100.00;101251.50;5007579;28;20288;-57
2023/08/30 00:41:26;;;;;;;3.57;1.07;;;;;;;17.15;100.00;101261.06;4996645;28;20307;-57
2023/08/30 00:43:57;;;;;;;4.17;1.27;;;;;;;17.25;100.00;101258.13;5003904;28;20295;-58
2023/08/30 00:46:27;;;;;;;2.10;1.30;;;;;;;17.23;100.00;101254.63;5007017;28;20292;-57
2023/08/30 00:48:58;;;;;;;6.13;1.23;;;;;;;17.42;100.00;101264.66;5006620;28;20294;-56
2023/08/30 00:51:31;;;;;;;3.37;1.27;;;;;;;17.41;100.00;101268.22;5026470;28;20610;-58
2023/08/30 00:54:02;;;;;;;5.20;1.13;;;;;;;17.40;100.00;101248.88;5016752;28;20276;-57
2023/08/30 00:56:34;;;;;;;3.53;1.10;;;;;;;17.71;100.00;101294.69;5026094;28;20275;-57
2023/08/30 00:59:07;;;;;;;3.03;0.97;;;;;;;17.74;100.00;101291.94;5016503;28;20279;-57
2023/08/30 01:01:38;;;;;;;4.43;1.40;;;;;;;17.58;100.00;101276.53;5010930;28;20288;-57
2023/08/30 01:04:10;;;;;;;4.50;1.20;;;;;;;17.60;100.00;101287.94;4996992;28;20338;-56
2023/08/30 01:06:43;;;;;;;3.83;1.20;;;;;;;17.66;100.00;101285.09;5006392;28;20689;-57
2023/08/30 01:09:13;;;;;;;3.13;1.27;;;;;;;17.61;100.00;101281.72;4996720;28;20427;-57
2023/08/30 01:11:52;;;;;;;4.37;1.30;;;;;;;17.60;100.00;101287.94;5006784;28;20312;-59
2023/08/30 01:14:27;;;;;;;3.65;1.38;;;;;;;17.50;100.00;101278.53;4988761;28;20319;-57
2023/08/30 01:16:58;;;;;;;4.57;1.30;;;;;;;17.59;100.00;101288.81;5008868;28;20594;-58
2023/08/30 01:19:44;;;;;;;9.93;1.60;;;;;;;17.54;100.00;101274.88;5005594;28;20310;-56
2023/08/30 01:22:19;;;;;;;1.90;1.30;;;;;;;17.52;100.00;101266.13;4997444;28;20296;-58
2023/08/30 01:25:09;;;;;;;2.70;1.40;;;;;;;17.27;100.00;101217.56;5007661;28;20288;-57
2023/08/30 01:27:42;;;;;;;9.07;1.60;;;;;;;17.49;100.00;101260.94;5005638;28;20288;-56
2023/08/30 01:30:15;;;;;;;2.10;1.30;;;;;;;17.59;100.00;101280.91;5008733;28;20826;-56
2023/08/30 01:32:47;;;;;;;3.97;1.53;;;;;;;17.58;100.00;101275.69;5015977;28;20308;-56
2023/08/30 01:35:19;;;;;;;7.97;1.97;;;;;;;17.58;100.00;101276.53;5005087;28;20290;-54
2023/08/30 01:37:50;;;;;;;6.97;2.70;;;;;;;17.57;100.00;101269.53;5016192;28;20312;-57
2023/08/30 01:40:22;;;;;;;4.47;1.73;;;;;;;17.59;100.00;101275.63;4996435;28;20386;-57
2023/08/30 01:42:55;;;;;;;4.60;1.77;;;;;;;17.54;100.00;101274.88;5005948;28;20371;-56
2023/08/30 01:45:26;;;;;;;4.50;1.57;;;;;;;17.51;100.00;101269.69;4981022;28;20279;-58
2023/08/30 01:47:57;;;;;;;3.87;1.83;;;;;;;17.45;100.00;101280.47;5003007;28;20306;-56
2023/08/30 01:50:29;;;;;;;4.47;1.50;;;;;;;17.37;100.00;101266.56;5005783;28;20623;-57
2023/08/30 01:53:00;;;;;;;3.67;1.20;;;;;;;17.40;100.00;101287.66;4996160;28;20280;-56
2023/08/30 01:55:33;;;;;;;2.60;1.30;;;;;;;17.38;100.00;101281.53;5005429;28;20280;-56
2023/08/30 01:58:09;;;;;;;2.30;1.10;;;;;;;17.37;100.00;101277.16;4995698;28;20299;-57
2023/08/30 02:00:40;;;;;;;6.23;1.10;;;;;;;17.37;100.00;101282.44;5005955;28;20280;-56
2023/08/30 02:03:11;;;;;;;3.37;1.27;;;;;;;17.13;100.00;101229.41;4996108;28;20350;-56
2023/08/30 02:05:53;;;;;;;2.63;1.47;;;;;;;17.22;100.00;101258.19;5005151;28;20397;-56
2023/08/30 02:08:28;;;;;;;3.20;1.50;;;;;;;17.38;100.00;101273.63;4987342;28;20276;-55
2023/08/30 02:11:04;;;;;;;2.60;1.40;;;;;;;17.43;100.00;101292.84;4996290;28;20272;-56
2023/08/30 02:13:37;;;;;;;2.07;1.10;;;;;;;17.45;100.00;101296.31;5005530;28;20268;-57
2023/08/30 02:16:11;;;;;;;2.83;1.60;;;;;;;17.48;100.00;101279.50;4995799;28;20342;-57
2023/08/30 02:18:42;;;;;;;2.30;1.60;;;;;;;17.65;100.00;101280.75;5005252;28;20731;-57
2023/08/30 02:21:13;;;;;;;4.03;1.83;;;;;;;17.70;100.00;101259.47;4996076;28;20287;-57
2023/08/30 02:23:44;;;;;;;5.10;2.10;;;;;;;17.99;100.00;101261.22;5005468;28;20288;-58
2023/08/30 02:26:14;;;;;;;3.20;2.03;;;;;;;18.09;100.00;101267.94;4997947;28;20320;-59
2023/08/30 02:28:46;;;;;;;5.17;2.13;;;;;;;18.19;100.00;101262.38;5005819;28;20383;-57
2023/08/30 02:31:17;;;;;;;4.50;2.00;;;;;;;18.21;100.00;101265.84;4998203;28;21255;-57
2023/08/30 02:33:48;;;;;;;11.10;2.60;;;;;;;18.37;100.00;101256.50;5009085;28;20774;-57
2023/08/30 02:36:18;;;;;;;4.07;2.00;;;;;;;18.49;100.00;101266.66;4999726;28;20280;-57
2023/08/30 02:38:49;;;;;;;4.20;2.10;;;;;;;18.60;100.00;101254.88;5009184;28;20276;-56
2023/08/30 02:41:19;;;;;;;6.87;2.20;;;;;;;18.77;100.00;101249.00;5000510;28;20287;-56
2023/08/30 02:43:51;;;;;;;2.00;1.50;;;;;;;18.94;100.00;101247.50;5009474;28;20292;-57
2023/08/30 02:46:22;;;;;;;4.60;2.53;;;;;;;19.03;100.00;101245.47;4987031;28;20351;-57
2023/08/30 02:48:52;;;;;;;4.83;1.87;;;;;;;18.76;100.00;101195.19;4989410;28;20281;-57
2023/08/30 02:51:23;;;;;;;3.17;2.03;;;;;;;19.04;100.00;101236.56;4982679;28;20638;-56
2023/08/30 02:53:53;;;;;;;3.53;1.80;;;;;;;19.03;99.27;101229.56;5009079;28;20302;-57
2023/08/30 02:56:25;;;;;;;3.87;1.93;;;;;;;18.85;97.83;101225.78;4998552;28;20280;-57
2023/08/30 02:58:57;;;;;;;2.20;1.30;;;;;;;18.77;97.85;101207.53;5008687;28;20379;-57
2023/08/30 03:01:27;;;;;;;2.73;1.67;;;;;;;18.84;98.20;101209.03;4998209;28;20364;-58
2023/08/30 03:03:58;;;;;;;6.30;1.70;;;;;;;18.66;96.86;101199.06;4999168;28;20350;-57
2023/08/30 03:06:28;;;;;;;2.37;1.63;;;;;;;18.52;94.31;101202.16;5007831;28;20635;-57
2023/08/30 03:08:59;;;;;;;4.53;1.50;;;;;;;18.31;95.21;101193.19;4998055;28;20670;-58
2023/08/30 03:11:29;;;;;;;4.73;1.30;;;;;;;18.16;96.37;101183.13;5008293;28;20758;-57
2023/08/30 03:14:02;;;;;;;2.87;1.33;;;;;;;17.92;98.37;101175.06;4998898;28;20281;-58
2023/08/30 03:16:32;;;;;;;2.30;1.60;;;;;;;17.80;100.00;101180.78;5007650;28;20371;-57
2023/08/30 03:19:04;;;;;;;5.33;1.70;;;;;;;17.69;100.00;101189.00;4998311;28;20300;-58
2023/08/30 03:21:35;;;;;;;3.87;1.37;;;;;;;17.60;100.00;101200.72;5007882;28;20350;-57
2023/08/30 03:24:06;;;;;;;4.00;1.40;;;;;;;17.59;100.00;101209.53;4998009;28;20372;-58
2023/08/30 03:26:36;;;;;;;3.10;1.53;;;;;;;17.73;100.00;101205.63;5010138;28;20350;-57
2023/08/30 03:29:09;;;;;;;3.93;1.70;;;;;;;17.85;100.00;101198.22;4998350;28;20276;-56
2023/08/30 03:31:39;;;;;;;4.30;1.70;;;;;;;17.99;100.00;101192.47;5008404;28;20338;-57
2023/08/30 03:34:10;;;;;;;1.87;1.40;;;;;;;18.11;100.00;101196.50;4998351;28;20719;-57
2023/08/30 03:36:43;;;;;;;4.63;1.63;;;;;;;18.15;100.00;101194.63;5009567;28;20355;-57
2023/08/30 03:39:14;;;;;;;2.83;1.60;;;;;;;18.19;100.00;101198.91;5001248;28;20393;-58
2023/08/30 03:41:45;;;;;;;2.17;1.30;;;;;;;18.22;100.00;101210.25;5017713;28;20287;-59
2023/08/30 03:44:17;;;;;;;3.60;1.20;;;;;;;18.16;100.00;101205.16;5016278;28;20283;-58
2023/08/30 03:46:48;;;;;;;3.83;1.40;;;;;;;18.04;100.00;101195.81;5027711;28;20319;-58
2023/08/30 03:49:19;;;;;;;1.77;1.40;;;;;;;17.93;100.00;101200.63;5010301;28;20280;-56
2023/08/30 03:51:49;;;;;;;2.67;1.50;;;;;;;17.81;100.00;101209.78;5007128;28;20640;-57
2023/08/30 03:54:20;;;;;;;2.63;1.23;;;;;;;17.67;100.00;101217.25;4997535;28;20268;-57
2023/08/30 03:56:50;;;;;;;2.80;1.50;;;;;;;17.56;100.00;101214.06;5007217;28;20592;-57
2023/08/30 03:59:25;;;;;;;2.50;1.23;;;;;;;17.55;100.00;101213.22;5002635;28;20679;-58
2023/08/30 04:01:56;;;;;;;2.83;1.30;;;;;;;17.54;100.00;101200.03;5014146;28;20330;-59
2023/08/30 04:04:27;;;;;;;5.90;3.90;;;;;;;17.49;100.00;101208.09;5007084;28;20275;-57
2023/08/30 04:06:57;;;;;;;8.37;2.67;;;;;;;17.56;100.00;101204.38;5006418;28;20377;-58
2023/08/30 04:09:28;;;;;;;3.33;2.10;;;;;;;17.69;100.00;101183.69;5017219;28;20279;-57
2023/08/30 04:12:00;;;;;;;2.63;1.07;;;;;;;17.85;100.00;101184.13;5006540;28;20666;-56
2023/08/30 04:14:32;;;;;;;3.57;1.77;;;;;;;17.95;100.00;101169.69;5017352;28;20395;-58
2023/08/30 04:17:03;;;;;;;2.10;1.30;;;;;;;17.98;99.18;101164.31;5007200;28;20834;-58
2023/08/30 04:19:33;;;;;;;5.53;1.80;;;;;;;18.02;98.31;101171.25;5017279;28;20282;-57
2023/08/30 04:22:04;;;;;;;3.03;1.03;;;;;;;17.87;96.53;101147.91;5005930;28;20377;-57
2023/08/30 04:24:34;;;;;;;2.77;1.03;;;;;;;17.77;93.94;101159.66;5015030;28;20272;-56
2023/08/30 04:27:05;;;;;;;1.53;1.00;;;;;;;17.63;92.61;101160.13;5005122;28;20320;-57
2023/08/30 04:29:37;;;;;;;1.93;1.00;;;;;;;17.64;93.20;101165.34;5015166;28;20832;-57
2023/08/30 04:32:08;;;;;;;1.47;0.90;;;;;;;17.75;91.77;101161.53;5006625;28;20311;-58
2023/08/30 04:34:39;;;;;;;1.37;0.93;;;;;;;17.83;92.75;101164.81;5014685;28;20296;-57
2023/08/30 04:37:09;;;;;;;2.33;1.40;;;;;;;17.81;93.32;101161.34;5006137;28;20317;-57
2023/08/30 04:39:40;;;;;;;1.37;1.00;;;;;;;17.71;92.11;101146.66;5016780;28;20657;-57
2023/08/30 04:42:10;;;;;;;2.50;1.00;;;;;;;17.75;92.23;101161.53;5012479;28;20374;-58
2023/08/30 04:44:42;;;;;;;2.13;0.90;;;;;;;17.78;93.73;101164.91;5014259;28;20307;-57
2023/08/30 04:47:13;;;;;;;3.43;1.07;;;;;;;17.84;94.24;101155.94;4996267;28;20292;-57
2023/08/30 04:49:43;;;;;;;2.83;1.00;;;;;;;17.95;95.02;101164.41;5016072;28;20295;-57
2023/08/30 04:52:14;;;;;;;2.53;1.27;;;;;;;17.99;94.96;101144.88;5005043;28;20303;-57
2023/08/30 04:54:45;;;;;;;1.83;1.10;;;;;;;18.00;94.36;101143.97;5014216;28;20334;-59
2023/08/30 04:57:16;;;;;;;1.43;1.00;;;;;;;18.11;94.66;101144.47;5004595;28;20280;-58
2023/08/30 04:59:48;;;;;;;2.17;1.03;;;;;;;18.27;95.76;101143.94;5015685;28;20739;-57
2023/08/30 05:02:19;;;;;;;1.63;0.97;;;;;;;18.24;92.26;101144.91;5007372;28;20294;-55
2023/08/30 05:04:49;;;;;;;3.03;1.30;;;;;;;18.27;92.36;101151.88;5016317;28;20288;-55
2023/08/30 05:07:20;;;;;;;2.97;1.20;;;;;;;18.22;91.75;101161.75;5003827;28;20369;-57
2023/08/30 05:09:51;;;;;;;2.83;1.03;;;;;;;18.24;93.31;101154.63;5015280;28;20324;-57
2023/08/30 05:12:22;;;;;;;3.60;1.00;;;;;;;18.28;94.49;101156.28;5004168;28;20280;-58
2023/08/30 05:14:54;;;;;;;2.53;1.17;;;;;;;18.25;94.81;101140.50;5014829;28;20287;-56
2023/08/30 05:17:25;;;;;;;3.97;1.13;;;;;;;18.18;94.91;101136.34;4996593;28;20396;-57
2023/08/30 05:19:55;;;;;;;4.73;1.10;;;;;;;18.09;97.47;101130.41;5008620;28;20283;-57
2023/08/30 05:22:26;;;;;;;4.83;1.40;;;;;;;17.99;98.93;101144.88;4995609;28;20599;-57
2023/08/30 05:24:56;;;;;;;1.60;0.80;;;;;;;17.90;98.51;101134.63;5007096;28;20346;-57
2023/08/30 05:27:26;;;;;;;2.00;0.80;;;;;;;17.84;96.28;101124.22;5005484;28;20291;-58
2023/08/30 05:29:58;;;;;;;1.27;0.80;;;;;;;17.82;95.98;101120.75;5003748;28;20276;-57
2023/08/30 05:32:29;;;;;;;5.70;1.20;;;;;;;17.83;98.05;101117.22;5015822;28;20274;-56
2023/08/30 05:35:00;;;;;;;1.23;0.90;;;;;;;17.42;94.90;101069.16;5015593;28;20298;-56
2023/08/30 05:37:31;;;;;;;1.23;0.80;;;;;;;17.65;92.80;101113.38;5025608;28;20295;-57
2023/08/30 05:40:01;;;;;;;0.63;0.53;;;;;;;17.61;91.50;101112.59;4996636;28;20280;-58
2023/08/30 05:42:32;;;;;;;0.60;0.53;;;;;;;17.35;89.49;101088.78;5013309;28;20734;-57
2023/08/30 05:45:04;;;;;;;1.13;0.60;;;;;;;17.28;88.28;101097.81;4995438;28;20291;-57
2023/08/30 05:47:35;;;;;;;1.40;0.60;;;;;;;17.21;87.10;101097.97;5011848;28;20585;-57
2023/08/30 05:50:06;;;;;;;1.17;0.60;;;;;;;17.17;88.09;101106.94;5012206;28;20311;-58
2023/08/30 05:52:40;;;;;;;0.77;0.50;;;;;;;17.21;89.63;101113.84;5025572;28;20272;-57
2023/08/30 05:55:11;;;;;;;0.87;0.50;;;;;;;17.17;85.64;101101.66;5015206;28;20286;-57
2023/08/30 05:57:41;;;;;;;1.10;0.53;;;;;;;17.16;85.14;101093.75;5017696;28;20366;-58
2023/08/30 06:00:15;;;;;;;0.67;0.50;;;;;;;17.16;84.07;101094.63;4995860;28;20284;-56
2023/08/30 06:02:46;;;;;;;2.20;0.50;;;;;;;17.23;82.80;101082.97;5005679;28;21071;-60
2023/08/30 06:05:16;;;;;;;0.30;0.30;;;;;;;17.31;84.13;101081.88;4994378;28;20277;-59
2023/08/30 06:07:47;;;;;;;2.13;0.50;;;;;;;17.49;86.41;101081.28;5006629;28;20292;-56
2023/08/30 06:10:17;;;;;;;0.80;0.50;;;;;;;17.47;87.24;101077.81;4995727;28;20319;-58
2023/08/30 06:12:48;;;;;;;1.03;0.70;;;;;;;17.53;85.71;101077.63;5004927;28;20286;-58
2023/08/30 06:15:20;;;;;;;1.30;0.43;;;;;;;17.64;86.67;101077.28;4995365;28;20284;-58
2023/08/30 06:17:51;;;;;;;1.17;0.70;;;;;;;17.66;86.00;101073.66;5004757;28;20383;-58
2023/08/30 06:20:22;;;;;;;0.90;0.57;;;;;;;17.66;86.16;101067.53;4978980;28;20272;-57
2023/08/30 06:22:52;;;;;;;0.80;0.40;;;;;;;17.71;86.54;101064.72;5008366;28;20742;-58
2023/08/30 06:25:23;;;;;;;1.63;0.50;;;;;;;17.80;86.39;101069.75;5005561;28;20624;-59
2023/08/30 06:28:01;;;;;;;0.50;0.40;;;;;;;17.81;86.20;101071.47;5004906;28;20322;-58
2023/08/30 06:30:33;;;;;;;0.50;0.50;;;;;;;17.71;84.21;101059.44;4994809;28;20287;-58
2023/08/30 06:33:04;;;;;;;0.70;0.50;;;;;;;17.89;85.49;101077.34;4995645;28;20312;-59
2023/08/30 06:35:39;;;;;;;1.77;0.73;;;;;;;17.87;83.52;101068.59;5005219;28;20284;-57
2023/08/30 06:38:09;;;;;;;1.43;0.73;;;;;;;17.89;84.02;101074.72;4995459;28;20292;-58
2023/08/30 06:40:46;;;;;;;2.73;0.80;;;;;;;17.86;83.76;101074.81;5006015;28;20731;-59
2023/08/30 06:43:17;;;;;;;3.13;1.50;;;;;;;17.90;86.49;101073.81;4995869;28;20343;-60
2023/08/30 06:45:49;;;;;;;8.60;3.70;;;;;;;17.88;87.30;101075.63;5005353;28;20310;-59
2023/08/30 06:48:19;;;;;;;7.40;3.10;;;;;;;17.85;88.98;101073.09;4995069;28;20656;-58
2023/08/30 06:50:50;;;;;;;2.97;1.97;;;;;;;17.86;87.24;101074.81;5004521;28;20391;-59
2023/08/30 06:53:20;;;;;;;5.30;3.63;;;;;;;17.83;86.74;101069.63;4995073;28;20276;-58
2023/08/30 06:55:59;;;;;;;2.57;0.87;;;;;;;17.57;86.53;101041.38;5005907;28;20372;-59
2023/08/30 06:58:30;;;;;;;3.42;1.05;;;;;;;17.69;85.41;101068.25;4995786;28;20391;-60
2023/08/30 07:01:03;;;;;;;1.67;0.53;;;;;;;17.55;86.32;101067.88;4994500;28;20057;-58
2023/08/30 07:03:33;;;;;;;2.43;0.90;;;;;;;17.58;87.31;101059.84;5004300;28;20304;-57
2023/08/30 07:06:04;;;;;;;1.47;0.70;;;;;;;17.59;85.19;101058.06;4994808;28;20371;-58
2023/08/30 07:08:34;;;;;;;2.70;1.10;;;;;;;17.58;85.95;101059.84;5004523;28;20287;-58
2023/08/30 07:11:05;;;;;;;1.47;0.80;;;;;;;17.51;82.26;101063.59;4986540;28;20363;-58
2023/08/30 07:13:48;;;;;;;1.70;0.90;;;;;;;17.48;83.34;101063.69;5005614;28;20758;-58
2023/08/30 07:16:20;;;;;;;4.67;1.20;;;;;;;17.32;84.44;101057.16;4995616;28;20351;-59
2023/08/30 07:18:51;;;;;;;3.63;1.40;;;;;;;17.30;86.62;101080.13;5013225;28;20300;-56
2023/08/30 07:21:21;;;;;;;1.83;0.80;;;;;;;17.19;87.08;101078.69;4987261;28;20376;-58
2023/08/30 07:23:52;;;;;;;1.73;0.90;;;;;;;17.11;88.04;101075.41;5005087;28;20825;-58
2023/08/30 07:26:22;;;;;;;3.23;1.13;;;;;;;17.18;89.55;101091.94;4989390;28;20817;-57
2023/08/30 07:28:53;;;;;;;3.10;1.20;;;;;;;17.17;90.75;101087.56;5011448;28;20310;-60
2023/08/30 07:31:25;;;;;;;4.93;1.30;;;;;;;17.17;91.24;101085.81;4990041;28;20303;-57
2023/08/30 07:33:56;;;;;;;2.57;0.70;;;;;;;17.03;89.42;101074.78;4990914;28;20754;-57
2023/08/30 07:36:28;;;;;;;2.80;1.27;;;;;;;17.05;89.75;101094.09;5006316;28;20606;-59
2023/08/30 07:39:15;;;;;;;1.00;0.67;;;;;;;16.96;89.19;101076.75;5001434;28;20299;-59
2023/08/30 07:41:46;;;;;;;2.53;0.93;;;;;;;16.84;89.05;101078.88;5012024;28;20279;-60
2023/08/30 07:44:16;;;;;;;1.60;0.97;;;;;;;16.79;89.51;101082.50;5010411;28;20280;-57
2023/08/30 07:46:48;;;;;;;1.57;0.70;;;;;;;16.73;88.89;101073.91;5023541;28;20851;-59
2023/08/30 07:49:20;;;;;;;7.70;0.67;;;;;;;16.67;88.05;101074.91;5016987;28;20303;-56
2023/08/30 07:51:50;;;;;;;2.50;1.00;;;;;;;16.63;89.11;101075.94;5027499;28;20284;-58
2023/08/30 07:54:21;;;;;;;3.77;1.30;;;;;;;16.58;90.95;101064.66;5016981;28;20602;-57
2023/08/30 07:56:52;;;;;;;2.53;0.93;;;;;;;16.53;90.79;101071.81;5027949;28;20422;-58
2023/08/30 07:59:25;;;;;;;3.60;2.00;;;;;;;16.55;92.26;101080.56;5019694;28;20341;-59
2023/08/30 08:01:58;;;;;;;3.90;2.03;;;;;;;16.54;93.45;101073.53;5023202;28;20307;-59
2023/08/30 08:04:29;;;;;;;4.10;2.53;;;;;;;16.47;92.71;101066.69;4992949;28;20284;-59
2023/08/30 08:07:00;;;;;;;2.97;1.00;;;;;;;16.43;92.55;101065.06;4993272;28;20291;-60
2023/08/30 08:09:31;;;;;;;2.47;1.17;;;;;;;16.39;93.75;101073.06;5015476;28;20294;-58
2023/08/30 08:12:01;;;;;;;3.23;1.20;;;;;;;16.39;96.53;101065.13;5012441;28;20286;-57
2023/08/30 08:14:32;;;;;;;2.67;1.20;;;;;;;16.40;96.64;101066.03;5023364;28;20756;-57
2023/08/30 08:17:06;;;;;;;1.97;1.30;;;;;;;16.33;97.02;101052.13;5013292;28;20654;-58
2023/08/30 08:19:39;;;;;;;1.87;0.90;;;;;;;16.42;98.29;101064.19;5023196;28;20750;-58
2023/08/30 08:22:10;;;;;;;5.07;1.00;;;;;;;16.43;97.89;101059.81;5012813;28;20753;-58
2023/08/30 08:24:43;;;;;;;2.93;1.40;;;;;;;16.43;97.98;101070.34;5022988;28;20401;-58
2023/08/30 08:27:14;;;;;;;1.03;0.70;;;;;;;16.36;96.34;101059.09;5013043;28;20349;-59
2023/08/30 08:29:45;;;;;;;3.20;0.90;;;;;;;16.23;96.40;101055.94;5022489;28;20292;-58
2023/08/30 08:32:17;;;;;;;2.73;1.00;;;;;;;16.09;97.11;101060.69;5013945;28;20291;-58
2023/08/30 08:34:48;;;;;;;2.83;0.90;;;;;;;16.04;98.60;101057.31;5023620;28;20365;-59
2023/08/30 08:37:19;;;;;;;2.37;0.87;;;;;;;15.93;99.79;101047.94;5013073;28;20374;-59
2023/08/30 08:39:50;;;;;;;8.97;3.27;;;;;;;15.81;99.48;101040.34;5022233;28;20292;-56
2023/08/30 08:42:21;;;;;;;177.50;103.37;;;;;;;15.68;100.00;101012.56;5012032;28;20794;-59
2023/08/30 08:44:55;;;;;;;77.90;42.33;;;;;;;15.92;100.00;101051.44;5022254;28;20705;-58
2023/08/30 08:47:28;;;;;;;271.07;164.47;;;;;;;15.93;100.00;101047.94;5011811;28;20362;-59
2023/08/30 08:49:59;;;;;;;282.23;185.60;;;;;;;15.93;100.00;101040.03;5013060;28;20619;-58
2023/08/30 08:52:31;;;;;;;15.03;10.83;;;;;;;16.00;100.00;101045.13;5022202;28;20284;-58
2023/08/30 08:55:20;;;;;;;5.00;3.25;;;;;;;15.93;100.00;101034.75;5013150;28;20704;-59
2023/08/30 08:57:51;;;;;;;19.47;13.37;;;;;;;15.83;100.00;101017.44;5022121;28;20048;-56
2023/08/30 09:00:27;;;;;;;12.67;8.93;;;;;;;16.08;100.00;101053.72;5011458;28;20288;-59
2023/08/30 09:03:07;;;;;;;9.90;6.27;;;;;;;16.11;100.00;101069.44;5010859;28;20307;-58
2023/08/30 09:06:02;;;;;;;10.57;6.83;;;;;;;16.06;100.00;101066.06;4994080;28;20284;-58
2023/08/30 09:08:34;;;;;;;14.80;10.83;;;;;;;15.95;100.00;101059.31;5021404;28;20687;-57
2023/08/30 09:11:06;;;;;;;15.77;8.30;;;;;;;15.96;100.00;101061.03;5012332;28;20283;-57
2023/08/30 09:13:37;;;;;;;20.80;14.20;;;;;;;15.86;100.00;101054.25;5022601;28;20322;-58
2023/08/30 09:16:17;;;;;;;21.17;16.70;;;;;;;15.85;100.00;101057.81;5011610;28;20326;-59
2023/08/30 09:19:02;;;;;;;9.07;6.80;;;;;;;15.79;100.00;101057.94;5020901;28;20883;-58
2023/08/30 09:21:40;;;;;;;11.23;6.50;;;;;;;15.86;100.00;101064.81;5001278;28;20679;-57
2023/08/30 09:24:12;;;;;;;11.03;6.37;;;;;;;15.91;100.00;101062.91;5010154;28;20289;-57
2023/08/30 09:26:52;;;;;;;7.17;5.40;;;;;;;15.83;100.00;101064.03;5021603;28;20345;-56
2023/08/30 09:29:24;;;;;;;8.07;4.20;;;;;;;15.80;100.00;101064.97;4990982;28;20310;-57
2023/08/30 09:31:58;;;;;;;6.23;3.50;;;;;;;15.78;100.00;101077.31;5007156;28;20280;-57
2023/08/30 09:34:32;;;;;;;7.20;3.47;;;;;;;15.86;100.00;101091.16;5021310;28;20292;-57
2023/08/30 09:37:03;;;;;;;5.27;4.00;;;;;;;15.85;100.00;101093.81;4994600;28;21096;-57
2023/08/30 09:39:38;;;;;;;8.57;3.70;;;;;;;15.84;100.00;101085.06;5001976;28;20623;-58
2023/08/30 09:42:10;;;;;;;6.37;3.87;;;;;;;15.84;100.00;101092.97;4991687;28;20284;-58
2023/08/30 09:44:45;;;;;;;5.93;2.23;;;;;;;15.82;100.00;101086.84;5001509;28;20332;-57
2023/08/30 09:47:16;;;;;;;7.90;3.50;;;;;;;15.80;100.00;101080.78;4991857;28;20299;-57
2023/08/30 09:49:52;;;;;;;6.60;2.63;;;;;;;15.85;100.00;101099.97;5002019;28;20292;-58
2023/08/30 09:52:27;;;;;;;4.97;3.43;;;;;;;15.76;100.00;101075.63;4991374;28;20288;-58
2023/08/30 09:54:59;;;;;;;5.63;2.57;;;;;;;15.80;100.00;101085.16;4994769;28;20292;-58
2023/08/30 09:57:31;;;;;;;7.47;2.37;;;;;;;15.75;100.00;101074.75;5021047;28;20271;-58
2023/08/30 10:00:04;;;;;;;3.63;2.10;;;;;;;15.83;100.00;101080.69;5010857;28;21141;-58
2023/08/30 10:02:36;;;;;;;4.80;2.00;;;;;;;15.81;100.00;101076.38;5021258;28;20284;-57
2023/08/30 10:05:21;;;;;;;4.70;1.80;;;;;;;15.77;100.00;101070.28;5011385;28;20287;-58
2023/08/30 10:07:57;;;;;;;3.80;1.80;;;;;;;15.68;100.00;101070.50;5021734;28;20287;-58
2023/08/30 10:10:29;;;;;;;3.30;1.93;;;;;;;15.73;100.00;101071.28;5010207;28;20800;-57
2023/08/30 10:13:03;;;;;;;9.17;2.67;;;;;;;15.66;100.00;101078.44;5010690;28;20290;-57
2023/08/30 10:16:03;;;;;;;4.30;2.40;;;;;;;15.55;100.00;101085.75;5020457;28;20282;-57
2023/08/30 10:18:37;;;;;;;4.83;2.07;;;;;;;15.43;100.00;101065.84;5010339;28;20362;-57
2023/08/30 10:21:26;;;;;;;4.80;2.00;;;;;;;14.81;100.00;100981.28;5010674;28;20283;-58
2023/08/30 10:24:03;;;;;;;4.23;2.07;;;;;;;15.46;100.00;101071.00;5017321;28;20341;-57
2023/08/30 10:26:58;;;;;;;7.57;2.43;;;;;;;15.48;100.00;101079.75;5020444;28;20350;-58
2023/08/30 10:29:30;;;;;;;6.30;3.00;;;;;;;15.46;100.00;101076.28;5010658;28;20541;-57
2023/08/30 10:32:05;;;;;;;3.67;1.90;;;;;;;15.46;100.00;101081.56;5011298;28;20380;-58
2023/08/30 10:34:38;;;;;;;5.87;1.67;;;;;;;15.40;100.00;101086.97;5021001;28;20297;-59
2023/08/30 10:37:14;;;;;;;5.57;2.20;;;;;;;15.36;100.00;101085.31;5011537;28;20333;-60
2023/08/30 10:39:50;;;;;;;6.43;1.90;;;;;;;15.29;100.00;101078.44;5020222;28;20325;-58
2023/08/30 10:42:25;;;;;;;6.00;1.50;;;;;;;15.17;100.00;101058.53;5010715;28;20286;-59
2023/08/30 10:45:02;;;;;;;5.93;2.10;;;;;;;15.25;100.00;101082.94;5020883;28;20287;-58
2023/08/30 10:47:44;;;;;;;4.63;1.50;;;;;;;15.27;100.00;101085.50;5000491;28;20342;-59
2023/08/30 10:50:18;;;;;;;4.10;1.53;;;;;;;15.27;100.00;101104.78;4990620;28;20905;-58
2023/08/30 10:53:00;;;;;;;5.77;1.50;;;;;;;15.20;100.00;101099.72;5011600;28;20780;-57
2023/08/30 10:55:33;;;;;;;4.83;1.60;;;;;;;15.19;100.00;101093.56;5014177;28;20597;-57
2023/08/30 10:58:06;;;;;;;2.63;1.40;;;;;;;15.19;100.00;101103.25;5014783;28;20391;-57
2023/08/30 11:00:38;;;;;;;5.43;1.30;;;;;;;15.24;100.00;101101.38;5024202;28;20765;-57
2023/08/30 11:03:14;;;;;;;2.00;1.40;;;;;;;15.17;100.00;101087.47;5014005;28;20272;-57
2023/08/30 11:05:50;;;;;;;3.30;1.33;;;;;;;15.15;100.00;101065.59;5023961;28;20291;-57
2023/08/30 11:08:24;;;;;;;3.37;1.20;;;;;;;15.24;100.00;101080.31;5014062;28;20059;-58
2023/08/30 11:11:05;;;;;;;4.47;1.30;;;;;;;15.26;100.00;101068.00;5023987;28;20595;-58
2023/08/30 11:13:37;;;;;;;3.13;1.50;;;;;;;15.29;100.00;101055.59;5014194;28;20362;-58
2023/08/30 11:16:11;;;;;;;4.07;1.53;;;;;;;15.44;100.00;101069.31;5013949;28;20734;-57
2023/08/30 11:18:43;;;;;;;4.17;1.60;;;;;;;15.47;100.00;101074.50;5023721;28;20283;-59
2023/08/30 11:21:15;;;;;;;5.07;1.60;;;;;;;15.52;100.00;101070.00;5013462;28;20286;-58
2023/08/30 11:23:50;;;;;;;3.77;1.67;;;;;;;15.57;100.00;101056.72;5023304;28;20521;-59
2023/08/30 11:26:22;;;;;;;3.27;2.30;;;;;;;15.57;100.00;101046.19;5012208;28;20690;-58
2023/08/30 11:28:53;;;;;;;3.83;2.17;;;;;;;15.52;100.00;101033.13;5024405;28;20299;-58
2023/08/30 11:31:27;;;;;;;3.50;1.77;;;;;;;15.47;100.00;101020.06;5013603;28;20299;-56
2023/08/30 11:34:00;;;;;;;3.47;1.50;;;;;;;15.35;100.00;100990.53;5014515;28;20772;-58
2023/08/30 11:36:33;;;;;;;5.33;1.40;;;;;;;15.44;100.00;100999.06;5023382;28;20291;-57
2023/08/30 11:39:09;;;;;;;3.00;1.50;;;;;;;15.43;100.00;100997.34;5013438;28;20596;-59
2023/08/30 11:41:41;;;;;;;3.97;1.53;;;;;;;15.25;100.00;100976.72;5023010;28;20287;-58
2023/08/30 11:44:13;;;;;;;7.73;2.43;;;;;;;15.33;100.00;100995.84;5013124;28;21083;-58